createdAt,value
2022-10-13T00:00:13.964Z,100.00
2022-10-13T00:02:42.800Z,100.00
2022-10-13T00:05:11.596Z,100.00
2022-10-13T00:07:40.597Z,100.00
2022-10-13T00:10:10.026Z,100.00
2022-10-13T00:12:40.960Z,100.00
2022-10-13T00:15:13.585Z,100.00
2022-10-13T00:17:42.625Z,100.00
2022-10-13T00:20:12.614Z,100.00
2022-10-13T00:22:41.479Z,100.00
2022-10-13T00:25:10.835Z,100.00
2022-10-13T00:27:41.063Z,100.00
2022-10-13T00:30:10.603Z,100.00
2022-10-13T00:32:41.006Z,100.00
2022-10-13T00:35:10.837Z,100.00
2022-10-13T00:37:39.684Z,100.00
2022-10-13T00:40:09.779Z,100.00
2022-10-13T00:42:41.776Z,100.00
2022-10-13T00:45:23.668Z,100.00
2022-10-13T00:47:56.584Z,100.00
2022-10-13T00:50:30.138Z,100.00
2022-10-13T00:53:02.069Z,100.00
2022-10-13T00:55:33.302Z,100.00
2022-10-13T00:58:07.605Z,100.00
2022-10-13T01:00:36.794Z,100.00
2022-10-13T01:03:06.093Z,100.00
2022-10-13T01:05:36.260Z,100.00
2022-10-13T01:08:05.937Z,100.00
2022-10-13T01:10:44.533Z,100.00
2022-10-13T01:13:23.192Z,100.00
2022-10-13T01:15:59.254Z,100.00
2022-10-13T01:18:34.721Z,100.00
2022-10-13T01:21:23.984Z,100.00
2022-10-13T01:24:22.005Z,100.00
2022-10-13T01:27:20.485Z,100.00
2022-10-13T01:30:13.833Z,100.00
2022-10-13T01:33:10.814Z,100.00
2022-10-13T01:35:49.071Z,100.00
2022-10-13T01:38:27.035Z,100.00
2022-10-13T01:41:03.465Z,100.00
2022-10-13T01:43:38.379Z,100.00
2022-10-13T01:46:13.602Z,100.00
2022-10-13T01:48:43.866Z,100.00
2022-10-13T01:51:17.049Z,100.00
2022-10-13T01:53:47.675Z,100.00
2022-10-13T01:56:16.606Z,100.00
2022-10-13T01:58:49.119Z,100.00
2022-10-13T02:01:47.310Z,100.00
2022-10-13T02:04:31.303Z,100.00
2022-10-13T02:07:04.783Z,100.00
2022-10-13T02:09:42.438Z,100.00
2022-10-13T02:12:16.953Z,100.00
2022-10-13T02:14:48.275Z,100.00
2022-10-13T02:17:18.901Z,100.00
2022-10-13T02:19:47.804Z,100.00
2022-10-13T02:22:18.911Z,100.00
2022-10-13T02:24:48.295Z,100.00
2022-10-13T02:27:17.505Z,100.00
2022-10-13T02:29:55.157Z,100.00
2022-10-13T02:32:29.476Z,100.00
2022-10-13T02:34:58.652Z,100.00
2022-10-13T02:37:27.511Z,100.00
2022-10-13T02:39:56.470Z,100.00
2022-10-13T02:42:25.309Z,100.00
2022-10-13T02:44:57.509Z,100.00
2022-10-13T02:47:26.380Z,100.00
2022-10-13T02:49:56.556Z,100.00
2022-10-13T02:52:25.413Z,100.00
2022-10-13T02:54:54.186Z,100.00
2022-10-13T02:57:23.192Z,100.00
2022-10-13T02:59:54.645Z,100.00
2022-10-13T03:02:24.276Z,100.00
2022-10-13T03:04:53.079Z,100.00
2022-10-13T03:07:23.453Z,100.00
2022-10-13T03:09:52.479Z,100.00
2022-10-13T03:12:21.786Z,100.00
2022-10-13T03:14:50.867Z,100.00
2022-10-13T03:17:19.875Z,100.00
2022-10-13T03:19:49.256Z,100.00
2022-10-13T03:22:20.201Z,100.00
2022-10-13T03:24:50.755Z,100.00
2022-10-13T03:27:19.628Z,100.00
2022-10-13T03:29:48.606Z,100.00
2022-10-13T03:32:18.075Z,100.00
2022-10-13T03:34:47.303Z,100.00
2022-10-13T03:37:16.118Z,100.00
2022-10-13T03:39:45.313Z,100.00
2022-10-13T03:42:18.152Z,100.00
2022-10-13T03:44:53.672Z,100.00
2022-10-13T03:47:24.857Z,100.00
2022-10-13T03:49:55.182Z,100.00
2022-10-13T03:52:24.248Z,100.00
2022-10-13T03:54:53.259Z,100.00
2022-10-13T03:57:23.428Z,100.00
2022-10-13T03:59:52.244Z,100.00
2022-10-13T04:02:21.324Z,100.00
2022-10-13T04:04:50.959Z,100.00
2022-10-13T04:07:19.734Z,100.00
2022-10-13T04:09:48.560Z,100.00
2022-10-13T04:12:20.874Z,100.00
2022-10-13T04:14:51.497Z,100.00
2022-10-13T04:17:20.367Z,100.00
2022-10-13T04:19:49.153Z,100.00
2022-10-13T04:22:18.424Z,100.00
2022-10-13T04:24:49.933Z,100.00
2022-10-13T04:27:20.079Z,100.00
2022-10-13T04:29:48.868Z,100.00
2022-10-13T04:32:19.299Z,100.00
2022-10-13T04:34:48.301Z,100.00
2022-10-13T04:37:17.284Z,100.00
2022-10-13T04:39:46.125Z,100.00
2022-10-13T04:42:14.933Z,100.00
2022-10-13T04:44:43.845Z,100.00
2022-10-13T04:47:13.672Z,100.00
2022-10-13T04:49:43.902Z,100.00
2022-10-13T04:52:12.808Z,100.00
2022-10-13T04:54:42.428Z,100.00
2022-10-13T04:57:11.329Z,100.00
2022-10-13T04:59:40.159Z,100.00
2022-10-13T05:02:09.478Z,99.94
2022-10-13T05:04:38.308Z,99.55
2022-10-13T05:07:23.798Z,100.00
2022-10-13T05:09:53.072Z,100.00
2022-10-13T05:12:22.261Z,98.45
2022-10-13T05:14:51.951Z,94.87
2022-10-13T05:17:20.705Z,93.28
2022-10-13T05:19:50.288Z,92.82
2022-10-13T05:22:20.904Z,93.64
2022-10-13T05:24:51.707Z,93.31
2022-10-13T05:27:20.608Z,93.02
2022-10-13T05:29:49.582Z,90.39
2022-10-13T05:32:18.716Z,94.07
2022-10-13T05:34:48.996Z,100.00
2022-10-13T05:37:18.394Z,100.00
2022-10-13T05:39:49.046Z,100.00
2022-10-13T05:42:18.214Z,100.00
2022-10-13T05:44:47.397Z,100.00
2022-10-13T05:47:16.252Z,100.00
2022-10-13T05:49:47.120Z,100.00
2022-10-13T05:52:16.044Z,100.00
2022-10-13T05:54:48.534Z,96.92
2022-10-13T05:57:21.112Z,93.77
2022-10-13T05:59:53.561Z,96.88
2022-10-13T06:02:24.615Z,96.28
2022-10-13T06:04:56.832Z,96.75
2022-10-13T06:07:26.156Z,93.66
2022-10-13T06:09:55.027Z,94.63
2022-10-13T06:12:25.612Z,96.57
2022-10-13T06:14:54.442Z,100.00
2022-10-13T06:17:23.281Z,100.00
2022-10-13T06:19:52.202Z,100.00
2022-10-13T06:22:22.465Z,100.00
2022-10-13T06:24:51.540Z,100.00
2022-10-13T06:27:20.430Z,100.00
2022-10-13T06:29:52.974Z,100.00
2022-10-13T06:32:22.370Z,100.00
2022-10-13T06:34:51.790Z,98.94
2022-10-13T06:37:26.160Z,97.72
2022-10-13T06:39:56.140Z,93.08
2022-10-13T06:42:25.064Z,94.25
2022-10-13T06:45:12.256Z,88.15
2022-10-13T06:47:42.417Z,87.78
2022-10-13T06:50:11.609Z,89.63
2022-10-13T06:52:40.630Z,92.75
2022-10-13T06:55:09.993Z,92.06
2022-10-13T06:57:39.135Z,90.21
2022-10-13T07:00:12.109Z,88.16
2022-10-13T07:02:41.316Z,89.32
2022-10-13T07:05:10.503Z,88.58
2022-10-13T07:07:39.518Z,82.67
2022-10-13T07:10:08.852Z,77.97
2022-10-13T07:12:37.664Z,72.95
2022-10-13T07:15:07.090Z,65.91
2022-10-13T07:17:37.331Z,63.83
2022-10-13T07:20:07.637Z,66.58
2022-10-13T07:22:36.676Z,68.78
2022-10-13T07:25:05.999Z,66.27
2022-10-13T07:27:34.833Z,67.43
2022-10-13T07:30:03.752Z,66.18
2022-10-13T07:32:32.893Z,68.76
2022-10-13T07:35:06.327Z,70.46
2022-10-13T07:37:35.191Z,72.95
2022-10-13T07:40:04.495Z,74.88
2022-10-13T07:42:33.848Z,74.69
2022-10-13T07:45:03.319Z,74.62
2022-10-13T07:47:33.409Z,80.87
2022-10-13T07:50:02.261Z,81.00
2022-10-13T07:52:32.710Z,78.39
2022-10-13T07:55:01.955Z,70.05
2022-10-13T07:57:30.804Z,65.63
2022-10-13T07:59:59.751Z,69.73
2022-10-13T08:02:30.093Z,62.59
2022-10-13T08:04:58.935Z,62.62
2022-10-13T08:07:27.968Z,63.20
2022-10-13T08:09:58.186Z,66.10
2022-10-13T08:12:27.119Z,64.33
2022-10-13T08:14:56.006Z,65.11
2022-10-13T08:17:24.850Z,65.20
2022-10-13T08:19:53.668Z,61.31
2022-10-13T08:22:28.318Z,57.29
2022-10-13T08:24:58.798Z,55.03
2022-10-13T08:27:47.606Z,55.71
2022-10-13T08:30:16.879Z,55.73
2022-10-13T08:32:45.897Z,58.80
2022-10-13T08:35:14.815Z,67.86
2022-10-13T08:37:43.925Z,69.45
2022-10-13T08:40:18.318Z,77.20
2022-10-13T08:42:48.128Z,70.63
2022-10-13T08:45:41.312Z,70.95
2022-10-13T08:48:16.935Z,70.62
2022-10-13T08:50:48.899Z,65.90
2022-10-13T08:53:26.813Z,63.00
2022-10-13T08:56:00.370Z,62.80
2022-10-13T08:58:34.475Z,61.01
2022-10-13T09:01:13.855Z,66.64
2022-10-13T09:03:49.905Z,65.11
2022-10-13T09:06:27.748Z,69.02
2022-10-13T09:08:59.000Z,66.48
2022-10-13T09:11:32.224Z,60.49
2022-10-13T09:14:04.156Z,59.78
2022-10-13T09:16:37.581Z,57.61
2022-10-13T09:19:24.263Z,56.95
2022-10-13T09:21:56.407Z,57.18
2022-10-13T09:24:27.831Z,57.24
2022-10-13T09:27:07.588Z,53.64
2022-10-13T09:29:41.014Z,53.54
2022-10-13T09:32:18.618Z,54.82
2022-10-13T09:34:49.492Z,53.13
2022-10-13T09:37:20.948Z,50.33
2022-10-13T09:40:03.429Z,48.72
2022-10-13T09:42:34.680Z,46.56
2022-10-13T09:45:16.223Z,46.36
2022-10-13T09:47:51.751Z,46.93
2022-10-13T09:50:24.534Z,46.56
2022-10-13T09:52:54.191Z,45.27
2022-10-13T09:55:33.185Z,43.25
2022-10-13T09:58:07.786Z,40.92
2022-10-13T10:00:38.763Z,42.74
2022-10-13T10:03:14.231Z,42.18
2022-10-13T10:05:50.411Z,41.85
2022-10-13T10:08:33.712Z,41.27
2022-10-13T10:11:16.624Z,40.21
2022-10-13T10:13:47.345Z,39.54
2022-10-13T10:16:24.835Z,37.84
2022-10-13T10:19:00.044Z,39.38
2022-10-13T10:21:36.903Z,38.71
2022-10-13T10:24:18.098Z,36.07
2022-10-13T10:26:55.488Z,36.41
2022-10-13T10:29:38.586Z,38.70
2022-10-13T10:32:24.861Z,35.54
2022-10-13T10:34:58.225Z,35.27
2022-10-13T10:37:44.446Z,34.84
2022-10-13T10:40:24.284Z,38.04
2022-10-13T10:43:23.832Z,39.33
2022-10-13T10:45:58.646Z,36.59
2022-10-13T10:48:33.920Z,37.53
2022-10-13T10:51:03.820Z,38.22
2022-10-13T10:53:39.469Z,38.70
2022-10-13T10:56:17.675Z,36.72
2022-10-13T10:58:54.709Z,39.55
2022-10-13T11:01:38.845Z,38.19
2022-10-13T11:04:33.345Z,38.13
2022-10-13T11:07:02.392Z,36.17
2022-10-13T11:10:02.368Z,37.48
2022-10-13T11:13:04.367Z,37.87
2022-10-13T11:15:44.030Z,37.56
2022-10-13T11:18:50.420Z,38.78
2022-10-13T11:21:22.950Z,38.98
2022-10-13T11:23:52.283Z,37.74
2022-10-13T11:26:31.333Z,37.04
2022-10-13T11:29:00.969Z,36.10
2022-10-13T11:31:46.125Z,36.01
2022-10-13T11:34:32.003Z,36.51
2022-10-13T11:37:04.116Z,36.08
2022-10-13T11:40:00.044Z,36.88
2022-10-13T11:42:58.494Z,37.60
2022-10-13T11:45:49.039Z,36.93
2022-10-13T11:48:51.451Z,35.64
2022-10-13T11:51:37.854Z,36.12
2022-10-13T11:54:19.429Z,34.19
2022-10-13T11:56:50.296Z,33.43
2022-10-13T11:59:24.584Z,32.53
2022-10-13T12:01:58.457Z,30.70
2022-10-13T12:04:29.121Z,34.67
2022-10-13T12:07:02.053Z,35.37
2022-10-13T12:09:34.345Z,36.59
2022-10-13T12:12:07.456Z,33.96
2022-10-13T12:14:40.333Z,31.44
2022-10-13T12:17:23.739Z,33.87
2022-10-13T12:19:53.311Z,34.54
2022-10-13T12:22:23.059Z,32.62
2022-10-13T12:25:00.779Z,32.04
2022-10-13T12:27:32.714Z,31.81
2022-10-13T12:30:03.265Z,31.16
2022-10-13T12:32:35.965Z,31.53
2022-10-13T12:35:25.406Z,35.13
2022-10-13T12:37:55.893Z,35.86
2022-10-13T12:40:26.893Z,38.11
2022-10-13T12:42:56.784Z,36.82
2022-10-13T12:45:30.763Z,37.61
2022-10-13T12:47:59.620Z,36.65
2022-10-13T12:50:37.948Z,35.98
2022-10-13T12:53:19.958Z,38.24
2022-10-13T12:55:58.688Z,39.42
2022-10-13T12:58:30.366Z,40.14
2022-10-13T13:01:07.665Z,42.42
2022-10-13T13:03:39.409Z,41.92
2022-10-13T13:06:11.082Z,41.65
2022-10-13T13:08:41.847Z,41.91
2022-10-13T13:11:24.204Z,39.86
2022-10-13T13:14:24.635Z,40.06
2022-10-13T13:17:08.379Z,40.39
2022-10-13T13:19:37.893Z,40.69
2022-10-13T13:22:07.868Z,41.18
2022-10-13T13:24:40.144Z,42.43
2022-10-13T13:28:00.932Z,42.49
2022-10-13T13:30:30.256Z,40.71
2022-10-13T13:32:59.267Z,40.19
2022-10-13T13:35:28.302Z,40.44
2022-10-13T13:37:57.329Z,40.87
2022-10-13T13:40:28.041Z,41.79
2022-10-13T13:42:58.306Z,41.17
2022-10-13T13:45:35.085Z,41.54
2022-10-13T13:48:03.982Z,42.21
2022-10-13T13:50:35.535Z,42.03
2022-10-13T13:53:05.048Z,41.65
2022-10-13T13:55:34.025Z,42.32
2022-10-13T13:58:04.307Z,42.38
2022-10-13T14:00:33.086Z,43.19
2022-10-13T14:03:02.862Z,43.55
2022-10-13T14:05:31.709Z,46.07
2022-10-13T14:08:02.759Z,48.43
2022-10-13T14:10:31.615Z,53.58
2022-10-13T14:13:00.432Z,56.69
2022-10-13T14:15:31.086Z,60.41
2022-10-13T14:17:59.913Z,61.53
2022-10-13T14:20:28.932Z,66.21
2022-10-13T14:22:57.825Z,66.83
2022-10-13T14:25:26.639Z,67.70
2022-10-13T14:27:55.449Z,72.25
2022-10-13T14:30:24.279Z,73.09
2022-10-13T14:32:54.503Z,72.97
2022-10-13T14:35:25.291Z,75.29
2022-10-13T14:37:57.154Z,73.37
2022-10-13T14:40:26.016Z,74.71
2022-10-13T14:42:54.846Z,78.73
2022-10-13T14:45:23.709Z,81.66
2022-10-13T14:47:54.715Z,80.18
2022-10-13T14:50:23.799Z,80.18
2022-10-13T14:52:57.446Z,82.20
2022-10-13T14:55:27.231Z,83.03
2022-10-13T14:57:56.026Z,81.82
2022-10-13T15:00:24.863Z,85.44
2022-10-13T15:02:55.075Z,87.12
2022-10-13T15:05:25.796Z,89.08
2022-10-13T15:07:54.691Z,89.06
2022-10-13T15:10:23.483Z,87.29
2022-10-13T15:12:52.269Z,87.73
2022-10-13T15:15:21.100Z,84.55
2022-10-13T15:17:49.967Z,84.75
2022-10-13T15:20:20.249Z,84.57
2022-10-13T15:22:49.568Z,83.92
2022-10-13T15:25:19.239Z,80.98
2022-10-13T15:27:49.890Z,79.75
2022-10-13T15:30:18.907Z,79.78
2022-10-13T15:32:50.168Z,79.53
2022-10-13T15:35:20.412Z,79.37
2022-10-13T15:37:49.175Z,76.15
2022-10-13T15:40:18.168Z,87.77
2022-10-13T15:42:46.955Z,90.84
2022-10-13T15:45:16.197Z,90.05
2022-10-13T15:47:45.022Z,91.37
2022-10-13T15:50:15.084Z,91.80
2022-10-13T15:52:45.520Z,97.29
2022-10-13T15:55:14.415Z,96.66
2022-10-13T15:57:43.229Z,98.61
2022-10-13T16:00:14.684Z,95.93
2022-10-13T16:02:44.451Z,95.25
2022-10-13T16:05:14.259Z,96.00
2022-10-13T16:07:43.557Z,95.57
2022-10-13T16:10:15.240Z,95.24
2022-10-13T16:12:49.407Z,93.95
2022-10-13T16:15:20.062Z,92.05
2022-10-13T16:17:48.907Z,89.25
2022-10-13T16:20:17.806Z,89.67
2022-10-13T16:22:47.309Z,89.75
2022-10-13T16:25:17.593Z,85.90
2022-10-13T16:27:46.515Z,85.76
2022-10-13T16:30:15.511Z,87.59
2022-10-13T16:32:44.378Z,88.43
2022-10-13T16:35:13.339Z,85.30
2022-10-13T16:37:42.207Z,89.45
2022-10-13T16:40:12.116Z,88.28
2022-10-13T16:42:43.376Z,89.09
2022-10-13T16:45:13.176Z,88.65
2022-10-13T16:47:42.061Z,88.75
2022-10-13T16:50:11.252Z,88.43
2022-10-13T16:52:40.108Z,92.06
2022-10-13T16:55:10.431Z,92.03
2022-10-13T16:57:39.320Z,93.34
2022-10-13T17:00:11.095Z,91.61
2022-10-13T17:02:39.999Z,91.75
2022-10-13T17:05:09.279Z,91.51
2022-10-13T17:07:38.132Z,96.18
2022-10-13T17:10:08.035Z,95.69
2022-10-13T17:12:36.884Z,92.06
2022-10-13T17:15:07.617Z,94.03
2022-10-13T17:17:38.756Z,92.10
2022-10-13T17:20:08.562Z,92.91
2022-10-13T17:22:38.357Z,92.90
2022-10-13T17:25:07.908Z,94.49
2022-10-13T17:27:36.937Z,96.01
2022-10-13T17:30:06.439Z,100.00
2022-10-13T17:32:40.343Z,100.00
2022-10-13T17:35:14.332Z,98.26
2022-10-13T17:37:43.145Z,96.76
2022-10-13T17:40:14.238Z,97.00
2022-10-13T17:42:43.226Z,100.00
2022-10-13T17:45:12.364Z,100.00
2022-10-13T17:47:48.875Z,100.00
2022-10-13T17:50:18.188Z,100.00
2022-10-13T17:52:47.141Z,100.00
2022-10-13T17:55:16.026Z,100.00
2022-10-13T17:57:44.832Z,100.00
2022-10-13T18:00:15.963Z,100.00
2022-10-13T18:02:47.282Z,100.00
2022-10-13T18:05:17.494Z,100.00
2022-10-13T18:07:46.855Z,99.59
2022-10-13T18:10:17.888Z,97.50
2022-10-13T18:12:46.720Z,99.29
2022-10-13T18:15:15.762Z,98.28
2022-10-13T18:17:44.641Z,96.33
2022-10-13T18:20:15.105Z,95.96
2022-10-13T18:22:43.964Z,95.71
2022-10-13T18:25:12.813Z,95.44
2022-10-13T18:27:41.684Z,93.95
2022-10-13T18:30:11.661Z,97.55
2022-10-13T18:32:40.576Z,99.13
2022-10-13T18:35:12.176Z,99.42
2022-10-13T18:37:42.363Z,99.69
2022-10-13T18:40:12.196Z,100.00
2022-10-13T18:42:45.976Z,100.00
2022-10-13T18:45:16.318Z,100.00
2022-10-13T18:47:45.186Z,100.00
2022-10-13T18:50:14.105Z,100.00
2022-10-13T18:52:44.265Z,100.00
2022-10-13T18:55:13.160Z,100.00
2022-10-13T18:57:42.080Z,99.04
2022-10-13T19:00:11.904Z,97.04
2022-10-13T19:02:40.768Z,96.91
2022-10-13T19:05:10.454Z,95.58
2022-10-13T19:07:39.324Z,96.85
2022-10-13T19:10:10.749Z,97.80
2022-10-13T19:12:39.606Z,97.70
2022-10-13T19:15:09.451Z,98.23
2022-10-13T19:17:38.335Z,95.50
2022-10-13T19:20:08.017Z,98.69
2022-10-13T19:22:36.906Z,100.00
2022-10-13T19:25:06.657Z,100.00
2022-10-13T19:27:37.131Z,100.00
2022-10-13T19:30:06.977Z,99.19
2022-10-13T19:32:36.030Z,96.56
2022-10-13T19:35:05.016Z,95.47
2022-10-13T19:37:34.082Z,94.10
2022-10-13T19:40:05.162Z,93.37
2022-10-13T19:42:36.660Z,93.01
2022-10-13T19:45:07.160Z,92.61
2022-10-13T19:47:35.993Z,93.92
2022-10-13T19:50:05.719Z,93.49
2022-10-13T19:53:13.103Z,93.88
2022-10-13T19:55:44.438Z,95.05
2022-10-13T19:58:16.099Z,92.33
2022-10-13T20:00:46.756Z,92.16
2022-10-13T20:03:15.909Z,90.37
2022-10-13T20:05:47.739Z,89.77
2022-10-13T20:08:16.643Z,90.30
2022-10-13T20:10:45.685Z,90.83
2022-10-13T20:13:16.096Z,91.13
2022-10-13T20:15:45.881Z,89.73
2022-10-13T20:18:14.832Z,92.18
2022-10-13T20:20:43.675Z,90.55
2022-10-13T20:23:12.577Z,91.49
2022-10-13T20:25:41.777Z,93.57
2022-10-13T20:28:10.604Z,95.11
2022-10-13T20:30:41.858Z,94.97
2022-10-13T20:33:10.822Z,95.15
2022-10-13T20:35:39.634Z,92.81
2022-10-13T20:38:08.449Z,92.94
2022-10-13T20:40:37.325Z,93.83
2022-10-13T20:43:06.126Z,96.16
2022-10-13T20:45:34.953Z,94.03
2022-10-13T20:48:05.368Z,94.18
2022-10-13T20:50:35.616Z,94.70
2022-10-13T20:53:04.878Z,95.48
2022-10-13T20:55:35.976Z,92.46
2022-10-13T20:58:08.248Z,90.66
2022-10-13T21:00:37.127Z,90.65
2022-10-13T21:03:07.405Z,91.63
2022-10-13T21:05:36.234Z,91.20
2022-10-13T21:08:05.207Z,89.78
2022-10-13T21:10:37.251Z,91.36
2022-10-13T21:13:06.172Z,89.25
2022-10-13T21:15:37.571Z,87.54
2022-10-13T21:18:09.316Z,87.60
2022-10-13T21:20:42.157Z,88.13
2022-10-13T21:23:12.740Z,89.05
2022-10-13T21:25:41.765Z,90.93
2022-10-13T21:28:10.700Z,89.80
2022-10-13T21:30:39.566Z,87.71
2022-10-13T21:33:09.736Z,86.19
2022-10-13T21:35:38.560Z,89.39
2022-10-13T21:38:07.389Z,89.38
2022-10-13T21:40:39.356Z,89.42
2022-10-13T21:43:10.895Z,90.24
2022-10-13T21:45:39.743Z,92.96
2022-10-13T21:48:09.993Z,91.77
2022-10-13T21:50:38.825Z,89.89
2022-10-13T21:53:07.783Z,88.98
2022-10-13T21:55:36.718Z,89.72
2022-10-13T21:58:05.632Z,90.87
2022-10-13T22:00:34.922Z,90.61
2022-10-13T22:03:03.811Z,90.32
2022-10-13T22:05:35.883Z,90.52
2022-10-13T22:08:04.880Z,89.98
2022-10-13T22:10:35.295Z,88.53
2022-10-13T22:13:04.589Z,88.68
2022-10-13T22:15:35.231Z,87.45
2022-10-13T22:18:04.566Z,87.31
2022-10-13T22:20:37.827Z,86.74
2022-10-13T22:23:06.680Z,84.92
2022-10-13T22:25:36.454Z,85.91
2022-10-13T22:28:05.280Z,87.27
2022-10-13T22:30:37.448Z,86.94
2022-10-13T22:33:10.453Z,86.37
2022-10-13T22:35:40.671Z,85.25
2022-10-13T22:38:10.337Z,86.40
2022-10-13T22:40:39.218Z,85.40
2022-10-13T22:43:08.944Z,84.91
2022-10-13T22:45:37.932Z,84.21
2022-10-13T22:48:07.375Z,81.67
2022-10-13T22:50:36.284Z,81.97
2022-10-13T22:53:06.475Z,82.52
2022-10-13T22:55:35.387Z,78.97
2022-10-13T22:58:04.622Z,76.93
2022-10-13T23:00:35.166Z,71.00
2022-10-13T23:03:04.338Z,67.47
2022-10-13T23:05:33.684Z,69.44
2022-10-13T23:08:03.721Z,68.19
2022-10-13T23:10:33.922Z,68.35
2022-10-13T23:13:03.245Z,69.20
2022-10-13T23:15:32.192Z,68.63
2022-10-13T23:18:01.087Z,66.93
2022-10-13T23:20:29.908Z,68.58
2022-10-13T23:22:58.799Z,68.33
2022-10-13T23:25:27.603Z,67.70
2022-10-13T23:27:59.025Z,66.66
2022-10-13T23:30:28.173Z,66.75
2022-10-13T23:32:57.097Z,66.96
2022-10-13T23:35:26.030Z,67.98
2022-10-13T23:37:55.032Z,67.52
2022-10-13T23:40:24.323Z,66.97
2022-10-13T23:42:53.107Z,65.95
2022-10-13T23:45:23.337Z,64.84
2022-10-13T23:47:52.496Z,64.44
2022-10-13T23:50:22.246Z,71.36
2022-10-13T23:52:51.124Z,76.59
2022-10-13T23:55:19.912Z,78.07
2022-10-13T23:57:48.800Z,77.12
